Time;durP1;ratioP1;P1;durP2;ratioP2;P2;SDS_P1;SDS_P2;PMS_P1;PMS_P2;Temp;Humidity;BMP_temperature;BMP_pressure;BME280_temperature;BME280_humidity;BME280_pressure;Samples;Min_cycle;Max_cycle;Signal;HPM_P1;HPM_P2
2023/06/29 00:00:21;;;;;;;1.27;0.40;;;;;;;18.83;73.11;100815.94;5070869;28;20551;-69
2023/06/29 00:02:48;;;;;;;1.45;0.30;;;;;;;18.74;73.30;100819.72;5061778;28;20493;-69
2023/06/29 00:05:14;;;;;;;1.55;0.30;;;;;;;18.70;72.51;100810.53;5059212;28;20036;-68
2023/06/29 00:07:41;;;;;;;1.17;0.30;;;;;;;18.75;71.86;100823.97;5054817;28;20020;-69
2023/06/29 00:10:08;;;;;;;1.83;0.25;;;;;;;18.77;71.38;100814.06;5052221;28;20134;-68
2023/06/29 00:12:35;;;;;;;1.15;0.38;;;;;;;18.88;70.93;100820.66;5057221;28;20036;-68
2023/06/29 00:15:02;;;;;;;0.98;0.20;;;;;;;19.02;70.86;100811.00;5066535;28;20060;-69
2023/06/29 00:17:29;;;;;;;1.52;0.30;;;;;;;19.00;71.28;100813.00;5071118;28;20077;-68
2023/06/29 00:19:56;;;;;;;3.25;0.45;;;;;;;18.96;72.09;100814.41;5070196;28;20031;-68
2023/06/29 00:22:24;;;;;;;1.80;0.28;;;;;;;18.90;72.89;100816.78;5072019;28;20139;-69
2023/06/29 00:24:56;;;;;;;1.88;0.20;;;;;;;18.78;73.40;100818.31;5071670;28;20036;-69
2023/06/29 00:27:24;;;;;;;0.82;0.30;;;;;;;18.67;74.00;100810.09;5078055;28;20052;-69
2023/06/29 00:29:50;;;;;;;1.23;0.30;;;;;;;18.62;73.42;100823.03;5072263;28;20039;-69
2023/06/29 00:32:16;;;;;;;2.88;0.30;;;;;;;18.64;73.43;100816.56;5075722;28;20116;-69
2023/06/29 00:34:42;;;;;;;4.40;0.30;;;;;;;18.61;73.89;100814.31;5072103;28;20442;-68
2023/06/29 00:37:08;;;;;;;1.45;0.30;;;;;;;18.52;74.88;100824.13;5072744;28;20035;-68
2023/06/29 00:39:34;;;;;;;0.63;0.25;;;;;;;18.41;74.39;100831.75;5068439;28;20037;-68
2023/06/29 00:42:02;;;;;;;4.93;0.25;;;;;;;18.47;73.61;100823.88;5075231;28;20029;-69
2023/06/29 00:44:29;;;;;;;0.73;0.30;;;;;;;18.54;73.05;100827.38;5078360;28;20484;-68
2023/06/29 00:46:56;;;;;;;0.75;0.20;;;;;;;18.49;73.35;100824.50;5073872;28;20066;-69
2023/06/29 00:49:22;;;;;;;1.15;0.30;;;;;;;18.48;74.18;100830.78;5068267;28;20358;-69
2023/06/29 00:51:53;;;;;;;0.90;0.40;;;;;;;18.37;75.82;100827.84;5072748;28;20043;-69
2023/06/29 00:54:19;;;;;;;1.65;0.60;;;;;;;18.22;76.64;100831.31;5074795;28;20102;-69
2023/06/29 00:56:46;;;;;;;3.45;0.60;;;;;;;18.16;77.73;100824.16;5069941;28;20456;-69
2023/06/29 00:59:12;;;;;;;1.67;0.40;;;;;;;18.18;78.64;100823.97;5071841;28;20073;-69
2023/06/29 01:01:39;;;;;;;2.22;0.50;;;;;;;18.18;79.09;100830.06;5069470;28;20056;-68
2023/06/29 01:04:08;;;;;;;2.60;0.43;;;;;;;18.10;80.15;100827.53;5068450;28;20025;-69
2023/06/29 01:06:48;;;;;;;2.40;0.50;;;;;;;18.02;81.13;100826.81;5069220;28;20087;-69
2023/06/29 01:09:14;;;;;;;1.45;0.40;;;;;;;17.88;80.33;100836.38;5072865;28;20048;-69
2023/06/29 01:11:40;;;;;;;2.97;0.20;;;;;;;17.89;80.48;100830.94;5073021;28;20055;-69
2023/06/29 01:14:10;;;;;;;2.33;0.30;;;;;;;17.95;81.29;100828.56;5064149;28;20027;-69
2023/06/29 01:16:37;;;;;;;0.77;0.20;;;;;;;17.93;80.96;100834.03;5060906;28;20146;-70
2023/06/29 01:19:13;;;;;;;2.47;0.32;;;;;;;17.95;80.59;100821.47;5067995;28;20039;-70
2023/06/29 01:21:54;;;;;;;1.00;0.30;;;;;;;17.95;81.64;100828.56;5067343;28;20052;-69
2023/06/29 01:24:24;;;;;;;0.60;0.30;;;;;;;17.90;82.11;100818.56;5072833;28;20033;-69
2023/06/29 01:26:50;;;;;;;0.90;0.30;;;;;;;17.91;81.91;100822.84;5071657;28;20074;-69
2023/06/29 01:29:24;;;;;;;2.40;0.30;;;;;;;17.91;80.71;100828.09;5069618;28;20055;-68
2023/06/29 01:31:51;;;;;;;0.93;0.30;;;;;;;17.98;79.08;100828.97;5064795;28;20465;-69
2023/06/29 01:34:17;;;;;;;1.50;0.40;;;;;;;17.99;78.92;100822.72;5081112;28;20035;-67
2023/06/29 01:36:48;;;;;;;1.23;0.30;;;;;;;18.00;78.88;100824.34;5069958;28;20468;-69
2023/06/29 01:39:20;;;;;;;2.13;0.35;;;;;;;17.97;78.78;100824.72;5067925;28;20041;-68
2023/06/29 01:41:46;;;;;;;2.15;0.30;;;;;;;17.95;79.11;100823.28;5072297;28;20031;-67
2023/06/29 01:44:15;;;;;;;2.15;0.30;;;;;;;17.83;80.01;100828.19;5079933;28;20043;-68
2023/06/29 01:46:42;;;;;;;1.85;0.40;;;;;;;17.81;80.29;100827.56;5076506;28;20032;-68
2023/06/29 01:49:08;;;;;;;0.85;0.20;;;;;;;17.82;79.92;100816.03;5076636;28;20028;-68
2023/06/29 01:51:34;;;;;;;0.63;0.30;;;;;;;17.82;79.87;100818.66;5061523;28;20025;-68
2023/06/29 01:53:59;;;;;;;2.45;0.40;;;;;;;17.88;79.53;100823.19;5075517;28;20047;-69
2023/06/29 01:56:25;;;;;;;3.10;0.30;;;;;;;17.90;79.28;100819.38;5056260;28;20094;-68
2023/06/29 01:58:50;;;;;;;2.08;0.60;;;;;;;17.93;79.39;100817.38;5066693;28;20031;-68
2023/06/29 02:01:16;;;;;;;0.75;0.40;;;;;;;17.95;79.45;100823.28;5070392;28;20180;-68
2023/06/29 02:03:41;;;;;;;1.52;0.40;;;;;;;17.93;79.56;100823.47;5073447;28;20593;-68
2023/06/29 02:06:07;;;;;;;1.40;0.40;;;;;;;17.89;79.70;100823.03;5070166;28;20029;-70
2023/06/29 02:08:33;;;;;;;1.20;0.50;;;;;;;17.95;79.78;100816.19;5074962;28;20177;-69
2023/06/29 02:10:59;;;;;;;1.00;0.47;;;;;;;17.97;79.61;100814.16;5071180;28;20025;-69
2023/06/29 02:13:24;;;;;;;3.55;0.82;;;;;;;17.91;79.72;100817.56;5070937;28;20053;-69
2023/06/29 02:15:49;;;;;;;3.15;0.40;;;;;;;17.81;80.39;100825.75;5072616;28;20029;-70
2023/06/29 02:18:15;;;;;;;0.90;0.40;;;;;;;17.74;80.69;100826.66;5071944;28;20044;-69
2023/06/29 02:20:40;;;;;;;2.65;0.32;;;;;;;17.72;80.84;100826.03;5073391;28;20032;-69
2023/06/29 02:23:06;;;;;;;2.90;0.50;;;;;;;17.72;80.76;100824.19;5071924;28;20125;-70
2023/06/29 02:25:31;;;;;;;1.13;0.50;;;;;;;17.75;80.23;100825.66;5071518;28;20036;-69
2023/06/29 02:27:57;;;;;;;3.50;0.30;;;;;;;17.78;79.99;100814.75;5069898;28;20024;-69
2023/06/29 02:30:22;;;;;;;0.93;0.20;;;;;;;17.79;79.58;100813.75;5070673;28;20075;-69
2023/06/29 02:32:48;;;;;;;0.98;0.40;;;;;;;17.75;79.89;100815.94;5073464;28;20032;-71
2023/06/29 02:35:13;;;;;;;1.50;0.22;;;;;;;17.68;80.07;100827.38;5068433;28;20036;-70
2023/06/29 02:37:38;;;;;;;1.08;0.30;;;;;;;17.69;80.13;100827.19;5072020;28;20032;-69
2023/06/29 02:40:05;;;;;;;2.33;0.30;;;;;;;17.70;80.04;100833.28;5071489;28;20033;-70
2023/06/29 02:42:30;;;;;;;2.13;0.40;;;;;;;17.66;79.91;100827.56;5065261;28;20500;-68
2023/06/29 02:44:56;;;;;;;1.27;0.20;;;;;;;17.64;79.99;100824.25;5076635;28;20044;-69
2023/06/29 02:47:21;;;;;;;1.08;0.30;;;;;;;17.66;79.50;100829.38;5069972;28;20503;-70
2023/06/29 02:49:46;;;;;;;1.25;0.40;;;;;;;17.63;79.50;100827.06;5073660;28;20029;-70
2023/06/29 02:52:12;;;;;;;0.80;0.30;;;;;;;17.63;79.33;100829.72;5075311;28;20024;-69
2023/06/29 02:54:37;;;;;;;1.08;0.32;;;;;;;17.67;79.11;100823.09;5070800;28;20036;-70
2023/06/29 02:57:03;;;;;;;1.08;0.35;;;;;;;17.66;79.16;100827.56;5061635;28;20051;-70
2023/06/29 02:59:28;;;;;;;1.63;0.93;;;;;;;17.61;79.31;100827.25;5071187;28;20484;-69
2023/06/29 03:01:54;;;;;;;1.13;0.43;;;;;;;17.61;79.50;100835.16;5054725;28;20025;-69
2023/06/29 03:04:19;;;;;;;0.65;0.20;;;;;;;17.61;79.46;100829.06;5081188;28;20071;-69
2023/06/29 03:06:45;;;;;;;3.00;0.40;;;;;;;17.64;79.53;100836.63;5058515;28;20036;-69
2023/06/29 03:09:10;;;;;;;3.22;0.90;;;;;;;17.59;79.70;100835.34;5060951;28;20389;-69
2023/06/29 03:11:35;;;;;;;2.08;0.43;;;;;;;17.57;79.90;100836.53;5062927;28;20039;-69
2023/06/29 03:14:01;;;;;;;1.65;0.50;;;;;;;17.62;79.56;100836.78;5066634;28;20032;-69
2023/06/29 03:16:26;;;;;;;4.20;0.50;;;;;;;17.61;79.77;100829.06;5068449;28;20028;-70
2023/06/29 03:18:52;;;;;;;1.90;0.40;;;;;;;17.54;80.04;100829.78;5073182;28;20053;-69
2023/06/29 03:21:19;;;;;;;1.13;0.30;;;;;;;17.50;80.33;100828.50;5067190;28;20040;-69
2023/06/29 03:23:45;;;;;;;1.05;0.50;;;;;;;17.52;80.29;100826.53;5068882;28;20365;-70
2023/06/29 03:26:11;;;;;;;1.65;0.30;;;;;;;17.49;80.26;100826.88;5064993;28;20115;-70
2023/06/29 03:28:37;;;;;;;0.75;0.30;;;;;;;17.51;80.30;100824.06;5050495;28;20116;-70
2023/06/29 03:31:02;;;;;;;1.90;0.30;;;;;;;17.50;80.24;100828.50;5061503;28;20050;-70
2023/06/29 03:33:28;;;;;;;1.92;0.40;;;;;;;17.49;80.36;100832.16;5078574;28;20028;-69
2023/06/29 03:35:53;;;;;;;1.58;0.50;;;;;;;17.47;80.27;100828.91;5068929;28;20570;-70
2023/06/29 03:38:18;;;;;;;0.93;0.30;;;;;;;17.49;80.21;100832.16;5077092;28;20032;-69
2023/06/29 03:40:44;;;;;;;0.75;0.30;;;;;;;17.52;80.11;100830.97;5069098;28;20069;-71
2023/06/29 03:43:09;;;;;;;0.70;0.30;;;;;;;17.45;80.54;100830.09;5069099;28;20063;-69
2023/06/29 03:45:35;;;;;;;1.10;0.52;;;;;;;17.43;80.79;100826.81;5062124;28;20035;-70
2023/06/29 03:48:00;;;;;;;1.90;0.30;;;;;;;17.43;80.98;100826.81;5063770;28;20097;-70
2023/06/29 03:50:26;;;;;;;3.60;0.30;;;;;;;17.36;81.26;100821.44;5065470;28;20032;-69
2023/06/29 03:52:51;;;;;;;1.27;0.30;;;;;;;17.35;81.45;100830.34;5071646;28;20035;-69
2023/06/29 03:55:17;;;;;;;4.25;0.40;;;;;;;17.31;81.56;100829.06;5075636;28;20040;-70
2023/06/29 03:57:42;;;;;;;0.80;0.28;;;;;;;17.30;81.48;100830.06;5072173;28;20048;-71
2023/06/29 04:00:08;;;;;;;2.08;0.30;;;;;;;17.36;81.33;100834.63;5069625;28;20028;-70
2023/06/29 04:02:34;;;;;;;1.00;0.32;;;;;;;17.35;81.53;100832.97;5075857;28;20391;-70
2023/06/29 04:04:59;;;;;;;0.90;0.38;;;;;;;17.32;81.62;100835.97;5067836;28;20032;-71
2023/06/29 04:07:25;;;;;;;2.28;0.50;;;;;;;17.36;81.60;100836.44;5075903;28;20411;-70
2023/06/29 04:09:50;;;;;;;2.15;0.40;;;;;;;17.43;81.28;100838.16;5076639;28;20029;-70
2023/06/29 04:12:15;;;;;;;1.98;0.50;;;;;;;17.45;81.48;100838.81;5072899;28;20029;-71
2023/06/29 04:14:41;;;;;;;1.00;0.30;;;;;;;17.40;81.91;100837.69;5064180;28;20938;-70
2023/06/29 04:17:06;;;;;;;3.05;0.30;;;;;;;17.39;81.81;100842.16;5074817;28;20028;-70
2023/06/29 04:19:32;;;;;;;1.40;0.57;;;;;;;17.38;82.16;100832.63;5073311;28;20028;-70
2023/06/29 04:21:58;;;;;;;1.08;0.50;;;;;;;17.40;82.16;100835.88;5065024;28;20056;-69
2023/06/29 04:24:24;;;;;;;3.00;0.60;;;;;;;17.40;82.12;100843.78;5079302;28;20028;-70
2023/06/29 04:26:49;;;;;;;0.80;0.30;;;;;;;17.45;81.88;100844.06;5071966;28;20474;-69
2023/06/29 04:29:14;;;;;;;1.67;0.40;;;;;;;17.53;81.55;100848.41;5073739;28;20043;-70
2023/06/29 04:31:40;;;;;;;0.57;0.30;;;;;;;17.64;81.20;100855.06;5073859;28;20610;-68
2023/06/29 04:34:05;;;;;;;2.35;0.40;;;;;;;17.74;80.65;100845.09;5062002;28;20033;-70
2023/06/29 04:36:31;;;;;;;1.25;0.50;;;;;;;17.78;80.63;100851.66;5076174;28;20036;-68
2023/06/29 04:38:56;;;;;;;1.15;0.30;;;;;;;17.79;80.20;100851.47;5069509;28;20029;-71
2023/06/29 04:41:31;;;;;;;2.28;0.77;;;;;;;17.83;79.84;100849.28;5073693;28;20037;-68
2023/06/29 04:44:00;;;;;;;2.83;0.57;;;;;;;17.89;80.13;100859.09;5072235;28;20392;-69
2023/06/29 04:46:28;;;;;;;0.82;0.30;;;;;;;17.92;79.87;100842.94;5074385;28;20036;-68
2023/06/29 04:48:54;;;;;;;4.05;0.30;;;;;;;17.95;79.59;100842.56;5064536;28;20107;-69
2023/06/29 04:51:19;;;;;;;4.68;1.33;;;;;;;18.00;79.53;100842.81;5079007;28;20119;-68
2023/06/29 04:53:45;;;;;;;3.63;2.50;;;;;;;18.03;79.50;100841.63;5073596;28;20044;-69
2023/06/29 04:56:12;;;;;;;8.77;1.00;;;;;;;18.09;79.45;100846.16;5075567;28;20063;-69
2023/06/29 04:58:39;;;;;;;1.00;0.30;;;;;;;18.08;79.30;100842.69;5075392;28;20040;-70
2023/06/29 05:01:07;;;;;;;1.48;0.30;;;;;;;18.12;79.04;100841.34;5068908;28;20028;-69
2023/06/29 05:03:33;;;;;;;1.23;0.32;;;;;;;18.26;78.83;100838.88;5066761;28;20105;-69
2023/06/29 05:05:59;;;;;;;1.17;0.30;;;;;;;18.41;78.23;100842.28;5069920;28;20033;-69
2023/06/29 05:08:27;;;;;;;7.63;0.70;;;;;;;18.46;77.69;100839.88;5071272;28;20036;-71
2023/06/29 05:10:52;;;;;;;1.63;0.50;;;;;;;18.56;77.80;100835.94;5070430;28;20411;-69
2023/06/29 05:13:18;;;;;;;1.90;0.50;;;;;;;18.73;77.07;100843.66;5064621;28;20040;-67
2023/06/29 05:15:47;;;;;;;1.73;0.30;;;;;;;18.72;76.24;100840.19;5066711;28;20020;-68
2023/06/29 05:18:13;;;;;;;1.00;0.30;;;;;;;18.57;76.73;100840.22;5074771;28;20036;-68
2023/06/29 05:20:38;;;;;;;5.22;1.05;;;;;;;18.51;76.68;100846.22;5070353;28;20025;-69
2023/06/29 05:23:03;;;;;;;5.70;0.30;;;;;;;18.64;76.14;100845.59;5072694;28;20488;-69
2023/06/29 05:25:29;;;;;;;1.55;0.32;;;;;;;18.81;75.63;100843.53;5061530;28;20124;-69
2023/06/29 05:27:54;;;;;;;1.27;0.40;;;;;;;18.85;74.97;100845.59;5074788;28;20375;-69
2023/06/29 05:30:20;;;;;;;5.93;0.57;;;;;;;18.89;75.15;100852.16;5061442;28;20424;-68
2023/06/29 05:32:45;;;;;;;0.70;0.30;;;;;;;18.94;74.98;100848.91;5072951;28;20036;-70
2023/06/29 05:35:11;;;;;;;1.25;0.40;;;;;;;19.13;74.37;100852.72;5072685;28;20042;-68
2023/06/29 05:37:36;;;;;;;0.90;0.38;;;;;;;19.24;74.14;100854.88;5071827;28;20055;-69
2023/06/29 05:40:02;;;;;;;3.10;0.40;;;;;;;19.30;74.06;100848.81;5070568;28;20029;-69
2023/06/29 05:42:27;;;;;;;4.00;0.50;;;;;;;19.33;73.99;100852.91;5065541;28;20085;-70
2023/06/29 05:44:55;;;;;;;4.35;0.50;;;;;;;19.48;73.97;100856.22;5061067;28;20021;-68
2023/06/29 05:47:20;;;;;;;2.05;0.50;;;;;;;19.54;73.83;100856.31;5053847;28;20518;-68
2023/06/29 05:49:46;;;;;;;4.75;0.50;;;;;;;19.52;73.40;100858.34;5062427;28;20028;-68
2023/06/29 05:52:11;;;;;;;4.93;0.75;;;;;;;19.50;73.30;100855.03;5067890;28;20090;-67
2023/06/29 05:54:37;;;;;;;4.30;0.90;;;;;;;19.54;73.58;100861.59;5068915;28;20439;-67
2023/06/29 05:57:03;;;;;;;3.28;1.38;;;;;;;19.62;73.61;100857.19;5073292;28;20085;-67
2023/06/29 05:59:29;;;;;;;2.65;1.13;;;;;;;19.77;72.91;100855.25;5064477;28;20037;-69
2023/06/29 06:01:55;;;;;;;5.35;0.90;;;;;;;19.76;72.56;100858.91;5063180;28;20028;-69
2023/06/29 06:04:21;;;;;;;2.90;1.10;;;;;;;19.94;72.82;100866.28;5067052;28;20089;-67
2023/06/29 06:06:47;;;;;;;5.68;1.02;;;;;;;20.21;71.70;100862.75;5067323;28;20055;-66
2023/06/29 06:09:13;;;;;;;3.38;0.93;;;;;;;20.51;70.87;100858.81;5092268;28;20040;-66
2023/06/29 06:11:39;;;;;;;2.13;0.40;;;;;;;20.64;70.31;100857.22;5088507;28;20136;-67
2023/06/29 06:14:05;;;;;;;1.98;0.47;;;;;;;20.63;70.19;100866.16;5092077;28;20493;-67
2023/06/29 06:16:31;;;;;;;1.33;0.70;;;;;;;20.64;69.67;100865.97;5071759;28;20073;-67
2023/06/29 06:18:57;;;;;;;4.47;0.70;;;;;;;20.74;68.86;100866.41;5073999;28;20479;-66
2023/06/29 06:21:24;;;;;;;1.27;0.70;;;;;;;20.93;68.56;100861.31;5077969;28;20040;-66
2023/06/29 06:23:49;;;;;;;5.20;0.60;;;;;;;21.14;68.85;100867.25;5090959;28;20032;-65
2023/06/29 06:26:15;;;;;;;2.15;0.47;;;;;;;21.29;67.43;100860.94;5084483;28;20020;-66
2023/06/29 06:28:41;;;;;;;4.32;0.50;;;;;;;21.37;67.10;100863.38;5089987;28;20377;-66
2023/06/29 06:31:06;;;;;;;2.92;0.65;;;;;;;21.34;66.84;100859.28;5088388;28;20028;-66
2023/06/29 06:33:32;;;;;;;3.80;0.40;;;;;;;21.17;67.26;100861.53;5086945;28;20047;-66
2023/06/29 06:35:59;;;;;;;1.90;0.20;;;;;;;21.16;66.55;100859.91;5086420;28;20036;-67
2023/06/29 06:38:24;;;;;;;1.58;0.20;;;;;;;21.31;65.57;100858.88;5088735;28;20594;-67
2023/06/29 06:40:51;;;;;;;1.35;0.30;;;;;;;21.30;66.04;100863.38;5084456;28;20028;-66
2023/06/29 06:43:17;;;;;;;3.60;0.40;;;;;;;21.36;65.03;100859.91;5067040;28;20070;-66
2023/06/29 06:45:44;;;;;;;2.85;0.50;;;;;;;21.39;65.26;100856.03;5062283;28;20076;-66
2023/06/29 06:48:09;;;;;;;2.90;0.30;;;;;;;21.61;65.35;100854.78;5066843;28;20108;-67
2023/06/29 06:50:35;;;;;;;4.13;0.30;;;;;;;21.60;64.47;100858.47;5072128;28;20136;-67
2023/06/29 06:53:00;;;;;;;2.00;0.30;;;;;;;21.74;64.61;100859.25;5065660;28;20047;-66
2023/06/29 06:55:26;;;;;;;6.60;0.40;;;;;;;21.92;63.80;100855.91;5064875;28;20027;-66
2023/06/29 06:57:52;;;;;;;5.70;0.30;;;;;;;22.04;62.59;100860.41;5071206;28;20051;-66
2023/06/29 07:00:19;;;;;;;3.80;0.55;;;;;;;22.17;62.74;100860.34;5066860;28;20028;-66
2023/06/29 07:02:45;;;;;;;10.50;0.50;;;;;;;22.39;62.50;100857.38;5082498;28;20035;-66
2023/06/29 07:05:11;;;;;;;2.25;0.30;;;;;;;21.99;62.93;100862.00;5085428;28;20033;-66
2023/06/29 07:07:36;;;;;;;2.97;0.30;;;;;;;21.68;63.21;100858.25;5088499;28;20030;-66
2023/06/29 07:10:03;;;;;;;1.63;0.30;;;;;;;21.57;63.75;100860.72;5076856;28;20025;-67
2023/06/29 07:12:28;;;;;;;1.63;0.30;;;;;;;21.72;63.65;100859.47;5084023;28;20123;-66
2023/06/29 07:14:54;;;;;;;3.13;0.30;;;;;;;22.02;62.58;100865.09;5090270;28;20395;-67
2023/06/29 07:17:19;;;;;;;3.17;0.38;;;;;;;22.24;61.78;100859.47;5084427;28;20024;-66
2023/06/29 07:19:45;;;;;;;2.20;0.40;;;;;;;22.39;61.76;100855.53;5090605;28;20514;-67
2023/06/29 07:22:11;;;;;;;4.60;0.55;;;;;;;22.53;61.40;100858.94;5068548;28;20128;-66
2023/06/29 07:24:37;;;;;;;3.38;0.43;;;;;;;22.79;61.82;100868.59;5067071;28;20039;-67
2023/06/29 07:27:03;;;;;;;4.03;0.68;;;;;;;23.08;62.61;100862.66;5099935;28;20147;-67
2023/06/29 07:29:30;;;;;;;3.22;0.35;;;;;;;23.11;61.33;100858.75;5083587;28;20443;-66
2023/06/29 07:31:55;;;;;;;2.30;0.50;;;;;;;23.24;61.45;100849.84;5080691;28;20028;-67
2023/06/29 07:34:23;;;;;;;3.08;0.40;;;;;;;23.55;62.26;100851.63;5066227;28;20079;-66
2023/06/29 07:36:49;;;;;;;2.67;0.30;;;;;;;23.85;62.22;100852.50;5074094;28;20089;-66
2023/06/29 07:39:14;;;;;;;1.92;0.30;;;;;;;23.93;60.86;100849.56;5070373;28;20029;-66
2023/06/29 07:41:40;;;;;;;7.63;0.63;;;;;;;23.82;60.25;100847.63;5078894;28;20086;-66
2023/06/29 07:44:05;;;;;;;25.45;1.55;;;;;;;23.80;60.36;100849.69;5075844;28;20032;-67
2023/06/29 07:46:34;;;;;;;6.68;0.68;;;;;;;23.89;60.61;100842.25;5073210;28;20397;-67
2023/06/29 07:49:00;;;;;;;4.20;0.32;;;;;;;24.07;60.44;100843.03;5090652;28;20051;-68
2023/06/29 07:51:31;;;;;;;2.63;0.47;;;;;;;24.29;60.02;100845.22;5082891;28;20063;-67
2023/06/29 07:53:57;;;;;;;1.30;0.43;;;;;;;24.42;58.77;100837.88;5090520;28;20077;-67
2023/06/29 07:56:23;;;;;;;1.67;0.40;;;;;;;24.21;58.49;100842.84;5087402;28;20036;-66
2023/06/29 07:58:48;;;;;;;3.90;0.40;;;;;;;24.27;57.59;100842.81;5090267;28;20117;-67
2023/06/29 08:01:14;;;;;;;3.28;0.30;;;;;;;24.31;57.37;100836.00;5090580;28;20111;-67
2023/06/29 08:03:39;;;;;;;2.10;0.35;;;;;;;24.29;56.51;100839.91;5089751;28;20114;-67
2023/06/29 08:06:05;;;;;;;2.30;0.63;;;;;;;24.01;57.56;100841.28;5080343;28;20058;-68
2023/06/29 08:08:30;;;;;;;1.83;0.30;;;;;;;23.94;57.70;100835.22;5090018;28;20085;-67
2023/06/29 08:10:58;;;;;;;0.47;0.20;;;;;;;24.11;57.77;100836.22;5090474;28;20360;-67
2023/06/29 08:13:24;;;;;;;1.00;0.30;;;;;;;24.52;55.45;100829.34;5090437;28;20509;-67
2023/06/29 08:15:49;;;;;;;1.52;0.20;;;;;;;24.79;55.68;100821.75;5082563;28;20032;-69
2023/06/29 08:18:15;;;;;;;1.00;0.30;;;;;;;25.14;55.18;100822.63;5090482;28;20055;-68
2023/06/29 08:20:41;;;;;;;1.65;0.35;;;;;;;25.36;54.82;100817.53;5081782;28;20469;-68
2023/06/29 08:23:06;;;;;;;1.13;0.30;;;;;;;25.59;54.18;100813.19;5090386;28;20460;-68
2023/06/29 08:25:32;;;;;;;0.70;0.20;;;;;;;25.84;53.64;100818.28;5070856;28;20031;-68
2023/06/29 08:27:57;;;;;;;1.88;0.20;;;;;;;25.65;53.08;100810.41;5087292;28;20042;-68
2023/06/29 08:30:23;;;;;;;0.80;0.30;;;;;;;25.68;53.41;100809.13;5079346;28;20036;-67
2023/06/29 08:32:48;;;;;;;2.08;0.30;;;;;;;25.83;52.80;100812.13;5087958;28;20055;-67
2023/06/29 08:35:15;;;;;;;0.90;0.30;;;;;;;26.01;52.02;100817.25;5088179;28;20032;-68
2023/06/29 08:37:40;;;;;;;0.95;0.20;;;;;;;25.88;51.57;100809.56;5084977;28;20118;-68
2023/06/29 08:40:07;;;;;;;1.45;0.20;;;;;;;25.65;51.82;100807.75;5080115;28;20199;-68
2023/06/29 08:42:33;;;;;;;0.63;0.20;;;;;;;25.65;51.34;100805.09;5070283;28;20128;-68
2023/06/29 08:44:58;;;;;;;0.77;0.20;;;;;;;25.89;51.68;100805.03;5086424;28;20107;-67
2023/06/29 08:47:27;;;;;;;1.30;0.20;;;;;;;26.33;51.13;100798.13;5093834;28;20028;-67
2023/06/29 08:49:56;;;;;;;1.85;0.38;;;;;;;26.27;50.10;100804.41;5092242;28;20073;-66
2023/06/29 08:52:25;;;;;;;0.68;0.30;;;;;;;25.99;51.21;100800.72;5092703;28;20039;-67
2023/06/29 08:54:52;;;;;;;1.15;0.22;;;;;;;26.13;50.71;100791.34;5080373;28;20032;-68
2023/06/29 08:57:18;;;;;;;2.55;0.30;;;;;;;26.34;50.75;100797.09;5091537;28;20034;-67
2023/06/29 08:59:44;;;;;;;2.22;0.30;;;;;;;26.56;50.87;100795.31;5089950;28;20176;-68
2023/06/29 09:02:10;;;;;;;0.55;0.20;;;;;;;26.74;50.84;100781.72;5089381;28;20138;-68
2023/06/29 09:04:36;;;;;;;1.90;0.40;;;;;;;27.03;51.17;100781.63;5084651;28;20543;-67
2023/06/29 09:07:03;;;;;;;1.45;0.20;;;;;;;26.89;50.86;100781.16;5091181;28;20032;-68
2023/06/29 09:09:29;;;;;;;0.40;0.20;;;;;;;26.96;50.53;100779.13;5092972;28;20115;-68
2023/06/29 09:11:54;;;;;;;1.05;0.22;;;;;;;27.01;49.96;100771.19;5088331;28;20036;-67
2023/06/29 09:14:20;;;;;;;1.13;0.38;;;;;;;27.03;50.36;100774.44;5082536;28;20046;-67
2023/06/29 09:16:51;;;;;;;0.95;0.30;;;;;;;26.90;50.30;100784.63;5091687;28;20032;-67
2023/06/29 09:19:18;;;;;;;0.50;0.30;;;;;;;27.23;49.93;100781.94;5089972;28;20059;-68
2023/06/29 09:21:47;;;;;;;0.77;0.20;;;;;;;27.53;49.14;100778.84;5090017;28;20059;-68
2023/06/29 09:24:16;;;;;;;1.77;0.30;;;;;;;27.73;48.85;100771.09;5087718;28;20045;-68
2023/06/29 09:26:42;;;;;;;0.47;0.20;;;;;;;27.73;48.75;100779.13;5073527;28;20107;-67
2023/06/29 09:29:07;;;;;;;0.40;0.20;;;;;;;27.75;49.08;100770.84;5068924;28;20567;-66
2023/06/29 09:31:33;;;;;;;1.02;0.30;;;;;;;27.81;48.62;100774.38;5081783;28;20036;-68
2023/06/29 09:34:18;;;;;;;0.50;0.25;;;;;;;27.00;46.92;100763.41;5088444;28;20028;-68
2023/06/29 09:36:45;;;;;;;1.38;0.20;;;;;;;26.80;48.56;100761.22;5087559;28;20036;-68
2023/06/29 09:39:12;;;;;;;1.25;0.20;;;;;;;26.82;50.02;100761.00;5093059;28;20051;-68
2023/06/29 09:41:54;;;;;;;5.63;0.30;;;;;;;27.48;49.14;100764.56;5086446;28;20392;-68
2023/06/29 09:44:22;;;;;;;2.17;0.35;;;;;;;27.80;49.09;100768.22;5078212;28;20031;-67
2023/06/29 09:47:04;;;;;;;1.17;0.30;;;;;;;28.02;48.61;100776.19;5077652;28;20556;-67
2023/06/29 09:49:30;;;;;;;0.95;0.30;;;;;;;28.10;47.48;100765.03;5082608;28;20089;-67
2023/06/29 09:52:03;;;;;;;2.80;0.30;;;;;;;27.99;45.79;100761.44;5085586;28;20055;-67
2023/06/29 09:54:37;;;;;;;0.70;0.28;;;;;;;27.84;46.85;100761.31;5068512;28;20032;-67
2023/06/29 09:57:03;;;;;;;0.47;0.20;;;;;;;27.87;47.40;100758.13;5085563;28;20098;-68
2023/06/29 09:59:33;;;;;;;0.65;0.20;;;;;;;27.82;46.85;100760.75;5067439;28;20078;-67
2023/06/29 10:01:59;;;;;;;1.13;0.20;;;;;;;27.78;47.13;100756.16;5090658;28;20083;-67
2023/06/29 10:04:25;;;;;;;1.17;0.30;;;;;;;27.68;46.85;100754.16;5088086;28;20042;-68
2023/06/29 10:06:59;;;;;;;1.00;0.20;;;;;;;27.66;47.79;100759.75;5077004;28;20028;-67
2023/06/29 10:09:25;;;;;;;1.58;0.40;;;;;;;27.65;46.53;100757.34;5082926;28;20034;-67
2023/06/29 10:11:55;;;;;;;1.50;0.30;;;;;;;27.27;46.58;100759.00;5092453;28;20036;-68
2023/06/29 10:14:22;;;;;;;0.90;0.30;;;;;;;27.35;46.66;100747.88;5092370;28;20024;-67
2023/06/29 10:16:52;;;;;;;1.00;0.25;;;;;;;27.34;46.45;100751.59;5088698;28;20071;-67
2023/06/29 10:19:20;;;;;;;2.08;0.40;;;;;;;27.64;46.41;100745.00;5087354;28;20031;-67
2023/06/29 10:21:53;;;;;;;1.88;0.20;;;;;;;27.46;45.26;100738.06;5089253;28;20036;-68
2023/06/29 10:24:23;;;;;;;1.95;0.40;;;;;;;27.59;46.91;100742.28;5078616;28;20032;-67
2023/06/29 10:26:49;;;;;;;0.80;0.38;;;;;;;27.70;46.96;100742.13;5081988;28;20028;-67
2023/06/29 10:29:15;;;;;;;2.10;0.20;;;;;;;27.74;46.25;100745.13;5073025;28;20400;-67
2023/06/29 10:31:54;;;;;;;1.55;0.43;;;;;;;27.63;46.07;100735.34;5066229;28;20086;-68
2023/06/29 10:34:20;;;;;;;4.68;0.28;;;;;;;27.64;46.83;100736.97;5081575;28;20036;-68
2023/06/29 10:36:48;;;;;;;0.82;0.30;;;;;;;27.61;46.35;100734.81;5082867;28;20040;-67
2023/06/29 10:39:40;;;;;;;2.53;0.38;;;;;;;27.28;46.51;100733.84;5076365;28;20400;-69
2023/06/29 10:42:25;;;;;;;2.90;0.30;;;;;;;27.47;43.38;100737.00;5071872;28;20150;-67
2023/06/29 10:44:51;;;;;;;1.65;0.20;;;;;;;27.31;46.33;100725.34;5053796;28;20127;-67
2023/06/29 10:47:36;;;;;;;0.85;0.38;;;;;;;27.25;44.55;100725.53;5058750;28;20548;-67
2023/06/29 10:50:11;;;;;;;;;;;;;;;27.20;44.42;100725.44;5081807;28;20158;-67
2023/06/29 10:52:42;;;;;;;3.20;0.20;;;;;;;27.33;45.21;100717.88;5090242;28;19912;-67
2023/06/29 10:55:18;;;;;;;2.28;0.30;;;;;;;27.70;45.37;100719.91;5063780;28;20028;-67
2023/06/29 10:58:11;;;;;;;1.30;0.30;;;;;;;27.60;43.88;100723.28;5060395;28;20024;-67
2023/06/29 11:00:38;;;;;;;1.02;0.30;;;;;;;27.20;45.14;100718.22;5061870;28;20060;-67
2023/06/29 11:03:03;;;;;;;1.20;0.30;;;;;;;27.41;45.64;100716.63;5065942;28;20090;-66
2023/06/29 11:05:32;;;;;;;0.50;0.25;;;;;;;27.42;44.17;100713.69;5065153;28;20032;-67
2023/06/29 11:07:58;;;;;;;0.50;0.22;;;;;;;27.50;43.28;100709.75;5074728;28;20029;-66
2023/06/29 11:10:23;;;;;;;1.02;0.30;;;;;;;27.72;43.47;100709.78;5079665;28;20391;-67
2023/06/29 11:12:50;;;;;;;2.88;0.35;;;;;;;27.57;44.41;100714.91;5075994;28;20421;-67
2023/06/29 11:15:17;;;;;;;2.35;0.28;;;;;;;27.15;43.92;100702.13;5067302;28;20070;-67
2023/06/29 11:17:44;;;;;;;0.77;0.30;;;;;;;26.99;45.01;100701.09;5062626;28;20051;-66
2023/06/29 11:20:13;;;;;;;1.02;0.30;;;;;;;27.20;45.27;100696.84;5066621;28;20036;-67
2023/06/29 11:22:40;;;;;;;2.00;0.30;;;;;;;27.34;45.22;100697.28;5073454;28;20048;-67